createdAt,value
2023-01-17T00:00:31.435Z,100.00
2023-01-17T00:02:57.962Z,100.00
2023-01-17T00:05:43.203Z,100.00
2023-01-17T00:08:31.620Z,100.00
2023-01-17T00:10:58.373Z,100.00
2023-01-17T00:13:24.813Z,100.00
2023-01-17T00:15:51.329Z,100.00
2023-01-17T00:18:17.784Z,100.00
2023-01-17T00:21:03.072Z,100.00
2023-01-17T00:23:41.786Z,100.00
2023-01-17T00:26:12.973Z,100.00
2023-01-17T00:28:40.749Z,100.00
2023-01-17T00:31:09.172Z,100.00
2023-01-17T00:33:36.113Z,100.00
2023-01-17T00:36:03.275Z,100.00
2023-01-17T00:38:31.217Z,100.00
2023-01-17T00:41:05.259Z,100.00
2023-01-17T00:43:50.706Z,100.00
2023-01-17T00:46:35.953Z,100.00
2023-01-17T00:49:21.274Z,100.00
2023-01-17T00:52:06.414Z,100.00
2023-01-17T00:54:51.676Z,100.00
2023-01-17T00:57:36.987Z,100.00
2023-01-17T01:00:22.812Z,100.00
2023-01-17T01:03:07.978Z,100.00
2023-01-17T01:05:53.128Z,100.00
2023-01-17T01:08:45.563Z,100.00
2023-01-17T01:11:32.210Z,100.00
2023-01-17T01:14:18.322Z,100.00
2023-01-17T01:17:03.472Z,100.00
2023-01-17T01:19:48.755Z,100.00
2023-01-17T01:22:33.886Z,100.00
2023-01-17T01:25:19.199Z,100.00
2023-01-17T01:28:04.297Z,100.00
2023-01-17T01:30:49.746Z,100.00
2023-01-17T01:33:20.751Z,100.00
2023-01-17T01:35:51.275Z,100.00
2023-01-17T01:38:19.202Z,100.00
2023-01-17T01:40:47.243Z,100.00
2023-01-17T01:43:15.370Z,100.00
2023-01-17T01:45:45.144Z,100.00
2023-01-17T01:48:20.498Z,100.00
2023-01-17T01:50:48.652Z,100.00
2023-01-17T01:53:15.816Z,100.00
2023-01-17T01:55:43.180Z,100.00
2023-01-17T01:58:13.106Z,100.00
2023-01-17T02:00:40.928Z,100.00
2023-01-17T02:03:11.847Z,100.00
2023-01-17T02:05:38.515Z,100.00
2023-01-17T02:08:07.785Z,100.00
2023-01-17T02:10:35.942Z,100.00
2023-01-17T02:13:02.653Z,100.00
2023-01-17T02:15:38.515Z,100.00
2023-01-17T02:18:24.020Z,100.00
2023-01-17T02:21:09.005Z,100.00
2023-01-17T02:23:39.443Z,99.81
2023-01-17T02:26:05.901Z,100.00
2023-01-17T02:28:43.186Z,100.00
2023-01-17T02:31:21.334Z,100.00
2023-01-17T02:33:53.650Z,100.00
2023-01-17T02:36:23.916Z,100.00
2023-01-17T02:39:00.372Z,100.00
2023-01-17T02:41:31.104Z,100.00
2023-01-17T02:43:57.616Z,100.00
2023-01-17T02:46:24.348Z,100.00
2023-01-17T02:48:51.561Z,100.00
2023-01-17T02:51:18.018Z,100.00
2023-01-17T02:53:52.968Z,100.00
2023-01-17T02:56:36.266Z,100.00
2023-01-17T02:59:08.916Z,100.00
2023-01-17T03:01:43.326Z,100.00
2023-01-17T03:04:15.433Z,100.00
2023-01-17T03:06:46.762Z,100.00
2023-01-17T03:09:15.120Z,100.00
2023-01-17T03:11:42.246Z,100.00
2023-01-17T03:14:08.700Z,100.00
2023-01-17T03:16:35.325Z,100.00
2023-01-17T03:19:01.826Z,100.00
2023-01-17T03:21:28.311Z,100.00
2023-01-17T03:23:54.902Z,100.00
2023-01-17T03:26:21.379Z,100.00
2023-01-17T03:28:47.882Z,100.00
2023-01-17T03:31:15.387Z,100.00
2023-01-17T03:33:41.851Z,100.00
2023-01-17T03:36:08.559Z,100.00
2023-01-17T03:38:37.199Z,100.00
2023-01-17T03:41:04.142Z,100.00
2023-01-17T03:43:30.632Z,100.00
2023-01-17T03:46:04.354Z,100.00
2023-01-17T03:48:31.254Z,100.00
2023-01-17T03:50:57.918Z,100.00
2023-01-17T03:53:24.720Z,100.00
2023-01-17T03:55:51.362Z,100.00
2023-01-17T03:58:17.968Z,100.00
2023-01-17T04:00:44.438Z,100.00
2023-01-17T04:03:10.938Z,100.00
2023-01-17T04:05:37.457Z,100.00
2023-01-17T04:08:04.061Z,100.00
2023-01-17T04:10:30.545Z,100.00
2023-01-17T04:12:57.217Z,100.00
2023-01-17T04:15:23.663Z,100.00
2023-01-17T04:17:50.222Z,100.00
2023-01-17T04:20:20.369Z,100.00
2023-01-17T04:22:46.857Z,100.00
2023-01-17T04:25:13.397Z,100.00
2023-01-17T04:27:39.863Z,100.00
2023-01-17T04:30:06.563Z,100.00
2023-01-17T04:32:33.002Z,100.00
2023-01-17T04:34:59.458Z,100.00
2023-01-17T04:37:25.914Z,100.00
2023-01-17T04:39:52.343Z,100.00
2023-01-17T04:42:18.801Z,100.00
2023-01-17T04:44:45.399Z,100.00
2023-01-17T04:47:11.804Z,100.00
2023-01-17T04:49:38.253Z,100.00
2023-01-17T04:52:04.784Z,100.00
2023-01-17T04:54:31.251Z,100.00
2023-01-17T04:56:57.703Z,100.00
2023-01-17T04:59:24.155Z,100.00
2023-01-17T05:01:50.656Z,100.00
2023-01-17T05:04:17.181Z,100.00
2023-01-17T05:06:44.749Z,100.00
2023-01-17T05:09:11.354Z,100.00
2023-01-17T05:11:37.803Z,100.00
2023-01-17T05:14:04.235Z,100.00
2023-01-17T05:16:30.765Z,100.00
2023-01-17T05:18:57.206Z,100.00
2023-01-17T05:21:23.893Z,100.00
2023-01-17T05:23:50.767Z,100.00
2023-01-17T05:26:17.306Z,100.00
2023-01-17T05:28:43.733Z,100.00
2023-01-17T05:31:10.261Z,100.00
2023-01-17T05:33:36.800Z,100.00
2023-01-17T05:36:03.728Z,100.00
2023-01-17T05:38:30.218Z,100.00
2023-01-17T05:40:59.671Z,100.00
2023-01-17T05:43:26.151Z,100.00
2023-01-17T05:45:52.854Z,100.00
2023-01-17T05:48:19.386Z,100.00
2023-01-17T05:50:45.858Z,100.00
2023-01-17T05:53:13.527Z,100.00
2023-01-17T05:55:41.102Z,100.00
2023-01-17T05:58:08.887Z,100.00
2023-01-17T06:00:35.403Z,100.00
2023-01-17T06:03:02.113Z,100.00
2023-01-17T06:05:29.320Z,100.00
2023-01-17T06:07:56.559Z,100.00
2023-01-17T06:10:23.812Z,100.00
2023-01-17T06:12:50.691Z,100.00
2023-01-17T06:15:17.910Z,100.00
2023-01-17T06:17:44.498Z,100.00
2023-01-17T06:20:11.715Z,100.00
2023-01-17T06:22:38.219Z,100.00
2023-01-17T06:25:04.897Z,100.00
2023-01-17T06:27:31.373Z,100.00
2023-01-17T06:29:57.875Z,100.00
2023-01-17T06:32:24.343Z,100.00
2023-01-17T06:34:50.899Z,100.00
2023-01-17T06:37:17.348Z,100.00
2023-01-17T06:39:43.916Z,100.00
2023-01-17T06:42:10.439Z,100.00
2023-01-17T06:44:36.936Z,100.00
2023-01-17T06:47:03.398Z,100.00
2023-01-17T06:49:29.899Z,100.00
2023-01-17T06:51:56.398Z,100.00
2023-01-17T06:54:22.946Z,100.00
2023-01-17T06:56:49.410Z,100.00
2023-01-17T06:59:15.839Z,100.00
2023-01-17T07:01:42.407Z,100.00
2023-01-17T07:04:08.942Z,100.00
2023-01-17T07:06:35.998Z,100.00
2023-01-17T07:09:04.052Z,100.00
2023-01-17T07:11:30.819Z,100.00
2023-01-17T07:13:57.244Z,100.00
2023-01-17T07:16:23.720Z,100.00
2023-01-17T07:18:51.307Z,100.00
2023-01-17T07:21:17.862Z,100.00
2023-01-17T07:23:44.310Z,100.00
2023-01-17T07:26:10.911Z,100.00
2023-01-17T07:28:37.375Z,100.00
2023-01-17T07:31:08.076Z,100.00
2023-01-17T07:33:34.898Z,100.00
2023-01-17T07:36:08.537Z,100.00
2023-01-17T07:38:35.316Z,100.00
2023-01-17T07:41:02.069Z,100.00
2023-01-17T07:43:28.844Z,100.00
2023-01-17T07:45:55.409Z,100.00
2023-01-17T07:48:23.679Z,100.00
2023-01-17T07:50:57.144Z,100.00
2023-01-17T07:53:24.981Z,100.00
2023-01-17T07:55:51.574Z,100.00
2023-01-17T07:58:18.096Z,100.00
2023-01-17T08:00:44.968Z,100.00
2023-01-17T08:03:13.539Z,100.00
2023-01-17T08:05:40.671Z,100.00
2023-01-17T08:08:07.378Z,100.00
2023-01-17T08:10:33.915Z,100.00
2023-01-17T08:13:00.396Z,100.00
2023-01-17T08:15:26.980Z,100.00
2023-01-17T08:17:53.408Z,100.00
2023-01-17T08:20:20.340Z,100.00
2023-01-17T08:22:46.780Z,100.00
2023-01-17T08:25:13.277Z,100.00
2023-01-17T08:27:39.975Z,100.00
2023-01-17T08:30:07.534Z,100.00
2023-01-17T08:32:34.592Z,100.00
2023-01-17T08:35:01.125Z,100.00
2023-01-17T08:37:27.664Z,100.00
2023-01-17T08:39:54.202Z,100.00
2023-01-17T08:42:20.650Z,100.00
2023-01-17T08:44:47.124Z,100.00
2023-01-17T08:47:13.568Z,100.00
2023-01-17T08:49:40.109Z,100.00
2023-01-17T08:52:06.567Z,100.00
2023-01-17T08:54:33.079Z,100.00
2023-01-17T08:56:59.631Z,100.00
2023-01-17T08:59:26.112Z,100.00
2023-01-17T09:01:54.573Z,100.00
2023-01-17T09:04:21.192Z,100.00
2023-01-17T09:06:48.354Z,100.00
2023-01-17T09:09:18.248Z,100.00
2023-01-17T09:11:44.788Z,100.00
2023-01-17T09:14:11.810Z,100.00
2023-01-17T09:16:38.322Z,100.00
2023-01-17T09:19:04.814Z,100.00
2023-01-17T09:21:31.351Z,100.00
2023-01-17T09:23:57.864Z,100.00
2023-01-17T09:26:25.569Z,100.00
2023-01-17T09:28:52.370Z,100.00
2023-01-17T09:31:20.691Z,100.00
2023-01-17T09:33:47.777Z,100.00
2023-01-17T09:36:14.361Z,100.00
2023-01-17T09:38:40.862Z,100.00
2023-01-17T09:41:28.526Z,100.00
2023-01-17T09:44:07.355Z,100.00
2023-01-17T09:46:38.972Z,100.00
2023-01-17T09:49:12.975Z,100.00
2023-01-17T09:51:39.647Z,100.00
2023-01-17T09:54:06.125Z,99.92
2023-01-17T09:56:39.308Z,99.22
2023-01-17T09:59:38.341Z,99.47
2023-01-17T10:02:14.000Z,100.00
2023-01-17T10:04:48.966Z,98.82
2023-01-17T10:07:26.792Z,97.57
2023-01-17T10:09:53.249Z,95.57
2023-01-17T10:12:29.518Z,96.02
2023-01-17T10:15:19.591Z,95.93
2023-01-17T10:17:53.607Z,96.65
2023-01-17T10:20:26.276Z,94.75
2023-01-17T10:23:22.207Z,95.08
2023-01-17T10:25:49.661Z,94.15
2023-01-17T10:28:23.732Z,95.25
2023-01-17T10:30:54.486Z,96.33
2023-01-17T10:33:23.762Z,95.22
2023-01-17T10:35:53.736Z,95.82
2023-01-17T10:38:22.565Z,94.91
2023-01-17T10:40:51.723Z,95.20
2023-01-17T10:43:28.201Z,94.99
2023-01-17T10:45:55.502Z,94.26
2023-01-17T10:48:28.568Z,93.12
2023-01-17T10:50:54.979Z,91.51
2023-01-17T10:53:35.566Z,92.23
2023-01-17T10:56:02.656Z,92.25
2023-01-17T10:58:29.264Z,92.98
2023-01-17T11:00:59.774Z,92.99
2023-01-17T11:03:27.781Z,92.13
2023-01-17T11:06:13.770Z,90.36
2023-01-17T11:08:50.584Z,90.62
2023-01-17T11:11:17.753Z,92.28
2023-01-17T11:13:45.959Z,92.42
2023-01-17T11:16:18.066Z,92.35
2023-01-17T11:18:45.608Z,87.70
2023-01-17T11:21:15.528Z,88.23
2023-01-17T11:23:44.355Z,90.32
2023-01-17T11:26:12.677Z,91.81
2023-01-17T11:28:40.565Z,96.00
2023-01-17T11:31:26.340Z,97.06
2023-01-17T11:34:13.072Z,97.60
2023-01-17T11:36:39.577Z,96.58
2023-01-17T11:39:21.109Z,96.20
2023-01-17T11:41:48.010Z,98.11
2023-01-17T11:44:31.023Z,98.33
2023-01-17T11:47:12.694Z,96.44
2023-01-17T11:49:40.316Z,97.87
2023-01-17T11:52:10.585Z,99.18
2023-01-17T11:54:42.516Z,100.00
2023-01-17T11:57:29.030Z,100.00
2023-01-17T12:00:13.960Z,100.00
2023-01-17T12:02:59.782Z,100.00
2023-01-17T12:05:41.379Z,100.00
2023-01-17T12:08:22.159Z,98.61
2023-01-17T12:11:02.845Z,100.00
2023-01-17T12:14:00.367Z,100.00
2023-01-17T12:16:33.011Z,100.00
2023-01-17T12:19:14.558Z,100.00
2023-01-17T12:21:43.937Z,100.00
2023-01-17T12:24:39.726Z,100.00
2023-01-17T12:27:19.959Z,100.00
2023-01-17T12:29:58.712Z,100.00
2023-01-17T12:32:40.258Z,100.00
2023-01-17T12:35:13.198Z,100.00
2023-01-17T12:37:41.400Z,100.00
2023-01-17T12:40:17.212Z,100.00
2023-01-17T12:42:48.832Z,100.00
2023-01-17T12:45:22.672Z,99.06
2023-01-17T12:47:54.455Z,98.98
2023-01-17T12:50:29.370Z,99.12
2023-01-17T12:52:58.965Z,98.80
2023-01-17T12:55:37.786Z,99.97
2023-01-17T12:58:06.336Z,99.86
2023-01-17T13:00:37.968Z,99.95
2023-01-17T13:03:43.122Z,100.00
2023-01-17T13:06:13.065Z,99.70
2023-01-17T13:08:43.691Z,99.05
2023-01-17T13:11:30.066Z,98.60
2023-01-17T13:13:59.927Z,98.73
2023-01-17T13:16:44.557Z,98.37
2023-01-17T13:19:40.739Z,100.00
2023-01-17T13:22:09.461Z,100.00
2023-01-17T13:25:00.290Z,99.46
2023-01-17T13:27:46.584Z,99.01
2023-01-17T13:30:22.146Z,99.76
2023-01-17T13:32:48.584Z,100.00
2023-01-17T13:35:40.522Z,100.00
2023-01-17T13:38:25.631Z,99.65
2023-01-17T13:40:58.357Z,98.96
2023-01-17T13:43:26.638Z,99.16
2023-01-17T13:45:55.159Z,99.58
2023-01-17T13:48:21.602Z,99.45
2023-01-17T13:50:49.523Z,100.00
2023-01-17T13:53:34.240Z,100.00
2023-01-17T13:56:14.359Z,100.00
2023-01-17T13:58:58.297Z,100.00
2023-01-17T14:01:25.003Z,100.00
2023-01-17T14:03:54.409Z,100.00
2023-01-17T14:06:33.247Z,100.00
2023-01-17T14:09:18.199Z,100.00
2023-01-17T14:11:59.961Z,100.00
2023-01-17T14:14:52.796Z,100.00
2023-01-17T14:17:23.001Z,100.00
2023-01-17T14:19:50.723Z,100.00
2023-01-17T14:22:20.311Z,100.00
2023-01-17T14:25:09.643Z,100.00
2023-01-17T14:27:40.217Z,100.00
2023-01-17T14:30:16.291Z,100.00
2023-01-17T14:33:05.352Z,100.00
2023-01-17T14:35:33.918Z,100.00
2023-01-17T14:38:05.563Z,100.00
2023-01-17T14:40:33.288Z,100.00
2023-01-17T14:43:07.608Z,100.00
2023-01-17T14:45:35.776Z,100.00
2023-01-17T14:48:03.973Z,100.00
2023-01-17T14:50:35.627Z,100.00
2023-01-17T14:53:13.970Z,100.00
2023-01-17T14:55:52.816Z,100.00
2023-01-17T14:58:24.001Z,100.00
2023-01-17T15:00:52.332Z,100.00
2023-01-17T15:03:18.922Z,100.00
2023-01-17T15:05:47.129Z,100.00
2023-01-17T15:08:15.059Z,100.00
2023-01-17T15:10:46.664Z,100.00
2023-01-17T15:13:18.088Z,100.00
2023-01-17T15:15:44.809Z,100.00
2023-01-17T15:18:14.307Z,100.00
2023-01-17T15:20:48.922Z,100.00
2023-01-17T15:23:18.585Z,100.00
2023-01-17T15:25:49.550Z,100.00
2023-01-17T15:28:16.192Z,100.00
2023-01-17T15:31:01.165Z,100.00
2023-01-17T15:33:27.733Z,100.00
2023-01-17T15:36:01.432Z,100.00
2023-01-17T15:38:28.927Z,100.00
2023-01-17T15:41:08.070Z,100.00
2023-01-17T15:43:35.934Z,100.00
2023-01-17T15:46:03.191Z,100.00
2023-01-17T15:48:32.422Z,100.00
2023-01-17T15:50:58.998Z,100.00
2023-01-17T15:53:30.884Z,100.00
2023-01-17T15:55:57.682Z,100.00
2023-01-17T15:58:25.526Z,100.00
2023-01-17T16:00:51.993Z,100.00
2023-01-17T16:03:31.902Z,100.00
2023-01-17T16:06:00.362Z,100.00
2023-01-17T16:08:28.766Z,100.00
2023-01-17T16:10:58.512Z,100.00
2023-01-17T16:13:25.327Z,100.00
2023-01-17T16:15:52.094Z,100.00
2023-01-17T16:18:25.903Z,100.00
2023-01-17T16:20:55.587Z,100.00
2023-01-17T16:23:22.293Z,100.00
2023-01-17T16:25:48.991Z,100.00
2023-01-17T16:28:15.698Z,100.00
2023-01-17T16:30:43.182Z,100.00
2023-01-17T16:33:11.975Z,100.00
2023-01-17T16:35:40.052Z,100.00
2023-01-17T16:38:08.428Z,100.00
2023-01-17T16:40:39.374Z,100.00
2023-01-17T16:43:06.144Z,100.00
2023-01-17T16:45:38.484Z,100.00
2023-01-17T16:48:05.398Z,100.00
2023-01-17T16:50:31.999Z,100.00
2023-01-17T16:52:58.841Z,100.00
2023-01-17T16:55:26.076Z,100.00
2023-01-17T16:57:54.317Z,100.00
2023-01-17T17:00:21.161Z,100.00
2023-01-17T17:02:51.408Z,100.00
2023-01-17T17:05:18.200Z,100.00
2023-01-17T17:07:46.220Z,100.00
2023-01-17T17:10:14.502Z,100.00
2023-01-17T17:12:41.400Z,100.00
2023-01-17T17:15:08.617Z,100.00
2023-01-17T17:17:39.742Z,100.00
2023-01-17T17:20:07.294Z,100.00
2023-01-17T17:22:33.950Z,100.00
2023-01-17T17:25:00.554Z,100.00
2023-01-17T17:27:27.887Z,100.00
2023-01-17T17:29:55.085Z,100.00
2023-01-17T17:32:21.760Z,100.00
2023-01-17T17:34:50.703Z,100.00
2023-01-17T17:37:17.723Z,100.00
2023-01-17T17:39:45.311Z,100.00
2023-01-17T17:42:12.206Z,100.00
2023-01-17T17:44:38.882Z,100.00
2023-01-17T17:47:05.552Z,100.00
2023-01-17T17:49:32.194Z,100.00
2023-01-17T17:52:06.023Z,100.00
2023-01-17T17:54:33.278Z,100.00
2023-01-17T17:57:00.013Z,100.00
2023-01-17T17:59:26.788Z,100.00
2023-01-17T18:01:53.613Z,100.00
2023-01-17T18:04:20.940Z,100.00
2023-01-17T18:06:47.702Z,100.00
2023-01-17T18:09:14.364Z,100.00
2023-01-17T18:11:41.519Z,100.00
2023-01-17T18:14:11.086Z,100.00
2023-01-17T18:16:41.572Z,100.00
2023-01-17T18:19:16.161Z,100.00
2023-01-17T18:21:43.703Z,100.00
2023-01-17T18:24:11.556Z,100.00
2023-01-17T18:26:43.267Z,100.00
2023-01-17T18:29:11.077Z,100.00
2023-01-17T18:31:37.841Z,100.00
2023-01-17T18:34:05.908Z,100.00
2023-01-17T18:36:34.756Z,100.00
2023-01-17T18:39:02.073Z,100.00
2023-01-17T18:41:29.343Z,100.00
2023-01-17T18:43:56.186Z,100.00
2023-01-17T18:46:23.747Z,100.00
2023-01-17T18:48:50.635Z,100.00
2023-01-17T18:51:18.574Z,100.00
2023-01-17T18:53:46.040Z,100.00
2023-01-17T18:56:14.269Z,100.00
2023-01-17T18:58:45.295Z,100.00
2023-01-17T19:01:13.608Z,100.00
2023-01-17T19:03:41.122Z,100.00
2023-01-17T19:06:08.761Z,100.00
2023-01-17T19:08:35.657Z,100.00
2023-01-17T19:11:04.612Z,100.00
2023-01-17T19:13:32.584Z,100.00
2023-01-17T19:15:59.764Z,100.00
2023-01-17T19:18:26.434Z,100.00
2023-01-17T19:20:53.304Z,100.00
2023-01-17T19:23:19.990Z,100.00
2023-01-17T19:25:46.690Z,100.00
2023-01-17T19:28:13.294Z,100.00
2023-01-17T19:30:40.760Z,100.00
2023-01-17T19:33:07.403Z,100.00
2023-01-17T19:35:34.076Z,100.00
2023-01-17T19:38:00.723Z,100.00
2023-01-17T19:40:27.463Z,100.00
2023-01-17T19:42:55.163Z,100.00
2023-01-17T19:45:21.937Z,100.00
2023-01-17T19:47:48.670Z,100.00
2023-01-17T19:50:17.167Z,100.00
2023-01-17T19:52:43.772Z,100.00
2023-01-17T19:55:10.499Z,100.00
2023-01-17T19:57:37.413Z,100.00
2023-01-17T20:00:05.861Z,100.00
2023-01-17T20:02:39.631Z,100.00
2023-01-17T20:05:07.118Z,100.00
2023-01-17T20:07:34.083Z,100.00
2023-01-17T20:10:00.811Z,100.00
2023-01-17T20:12:27.463Z,100.00
2023-01-17T20:14:54.479Z,100.00
2023-01-17T20:17:21.258Z,100.00
2023-01-17T20:19:48.011Z,100.00
2023-01-17T20:22:14.651Z,100.00
2023-01-17T20:24:41.319Z,100.00
2023-01-17T20:27:07.898Z,100.00
2023-01-17T20:29:34.526Z,100.00
2023-01-17T20:32:01.325Z,100.00
2023-01-17T20:34:27.962Z,100.00
2023-01-17T20:36:57.461Z,100.00
2023-01-17T20:39:24.104Z,100.00
2023-01-17T20:41:51.665Z,100.00
2023-01-17T20:44:19.596Z,100.00
2023-01-17T20:46:47.887Z,100.00
2023-01-17T20:49:16.271Z,100.00
2023-01-17T20:51:44.300Z,100.00
2023-01-17T20:54:13.806Z,100.00
2023-01-17T20:56:40.650Z,100.00
2023-01-17T20:59:09.391Z,100.00
2023-01-17T21:01:36.867Z,100.00
2023-01-17T21:04:04.234Z,100.00
2023-01-17T21:06:31.142Z,100.00
2023-01-17T21:08:58.393Z,100.00
2023-01-17T21:11:25.913Z,100.00
2023-01-17T21:13:52.513Z,100.00
2023-01-17T21:16:21.181Z,100.00
2023-01-17T21:18:48.363Z,100.00
2023-01-17T21:21:17.681Z,100.00
2023-01-17T21:23:45.085Z,100.00
2023-01-17T21:26:13.825Z,100.00
2023-01-17T21:28:41.352Z,100.00
2023-01-17T21:31:25.236Z,100.00
2023-01-17T21:33:53.151Z,100.00
2023-01-17T21:36:20.599Z,100.00
2023-01-17T21:38:49.847Z,100.00
2023-01-17T21:41:16.480Z,100.00
2023-01-17T21:43:45.287Z,100.00
2023-01-17T21:46:11.974Z,100.00
2023-01-17T21:48:44.441Z,100.00
2023-01-17T21:51:11.088Z,100.00
2023-01-17T21:53:39.172Z,100.00
2023-01-17T21:56:26.029Z,100.00
2023-01-17T21:58:54.696Z,100.00
2023-01-17T22:01:22.613Z,100.00
2023-01-17T22:04:02.905Z,100.00
2023-01-17T22:06:31.244Z,100.00
2023-01-17T22:08:58.171Z,100.00
2023-01-17T22:11:25.709Z,100.00
2023-01-17T22:13:52.833Z,100.00
2023-01-17T22:16:21.205Z,100.00
2023-01-17T22:18:47.818Z,100.00
2023-01-17T22:21:16.904Z,100.00
2023-01-17T22:24:01.708Z,100.00
2023-01-17T22:26:29.783Z,100.00
2023-01-17T22:28:59.247Z,100.00
2023-01-17T22:31:26.950Z,100.00
2023-01-17T22:34:03.919Z,100.00
2023-01-17T22:36:32.297Z,100.00
2023-01-17T22:38:58.845Z,100.00
2023-01-17T22:41:28.080Z,100.00
2023-01-17T22:43:58.318Z,100.00
2023-01-17T22:46:26.492Z,100.00
2023-01-17T22:48:54.265Z,100.00
2023-01-17T22:51:21.767Z,100.00
2023-01-17T22:53:50.124Z,100.00
2023-01-17T22:56:18.241Z,100.00
2023-01-17T22:58:45.421Z,100.00
2023-01-17T23:01:13.514Z,100.00
2023-01-17T23:03:41.152Z,100.00
2023-01-17T23:06:15.215Z,100.00
2023-01-17T23:08:43.141Z,100.00
2023-01-17T23:11:38.876Z,100.00
2023-01-17T23:14:06.668Z,100.00
2023-01-17T23:16:52.018Z,100.00
2023-01-17T23:19:24.887Z,100.00
2023-01-17T23:22:11.268Z,100.00
2023-01-17T23:24:43.004Z,100.00
2023-01-17T23:27:29.241Z,100.00
2023-01-17T23:29:55.748Z,100.00
2023-01-17T23:32:22.368Z,100.00
2023-01-17T23:34:48.918Z,100.00
2023-01-17T23:37:15.358Z,100.00
2023-01-17T23:39:41.891Z,100.00
2023-01-17T23:42:27.213Z,100.00
2023-01-17T23:44:53.909Z,100.00
2023-01-17T23:47:20.346Z,100.00
2023-01-17T23:49:48.288Z,100.00
2023-01-17T23:52:15.547Z,100.00
2023-01-17T23:54:42.058Z,100.00
2023-01-17T23:57:08.726Z,100.00
2023-01-17T23:59:35.215Z,100.00
